createdAt,value
2023-04-09T00:01:07.804Z,100668.75
2023-04-09T00:03:36.952Z,100666.91
2023-04-09T00:06:06.165Z,100659.06
2023-04-09T00:08:36.337Z,100666.28
2023-04-09T00:11:05.368Z,100656.97
2023-04-09T00:13:39.056Z,100662.16
2023-04-09T00:16:08.385Z,100663.72
2023-04-09T00:18:36.903Z,100673.84
2023-04-09T00:21:07.260Z,100663.38
2023-04-09T00:23:37.229Z,100655.59
2023-04-09T00:26:06.155Z,100664.53
2023-04-09T00:28:34.617Z,100662.91
2023-04-09T00:31:03.388Z,100663.66
2023-04-09T00:33:32.006Z,100671.31
2023-04-09T00:36:00.545Z,100669.47
2023-04-09T00:38:29.088Z,100658.09
2023-04-09T00:40:59.077Z,100661.69
2023-04-09T00:43:29.844Z,100660.78
2023-04-09T00:45:58.732Z,100666.97
2023-04-09T00:48:27.270Z,100664.22
2023-04-09T00:50:56.009Z,100656.44
2023-04-09T00:53:24.496Z,100658.22
2023-04-09T00:55:54.867Z,100650.47
2023-04-09T00:58:26.355Z,100666.06
2023-04-09T01:00:55.987Z,100660.06
2023-04-09T01:03:25.312Z,100650.56
2023-04-09T01:06:09.998Z,100657.47
2023-04-09T01:08:45.911Z,100659.25
2023-04-09T01:11:21.774Z,100658.41
2023-04-09T01:14:00.773Z,100658.34
2023-04-09T01:16:31.147Z,100651.44
2023-04-09T01:19:02.925Z,100659.13
2023-04-09T01:21:34.023Z,100663.41
2023-04-09T01:24:14.654Z,100655.97
2023-04-09T01:26:59.045Z,100661.94
2023-04-09T01:29:37.440Z,100654.91
2023-04-09T01:32:09.907Z,100658.34
2023-04-09T01:34:39.176Z,100660.00
2023-04-09T01:37:09.247Z,100652.56
2023-04-09T01:39:38.736Z,100659.28
2023-04-09T01:42:11.163Z,100659.88
2023-04-09T01:44:42.058Z,100659.97
2023-04-09T01:47:11.290Z,100656.66
2023-04-09T01:49:41.937Z,100656.63
2023-04-09T01:52:11.530Z,100670.28
2023-04-09T01:54:41.202Z,100665.03
2023-04-09T01:57:09.860Z,100672.13
2023-04-09T01:59:38.241Z,100665.31
2023-04-09T02:02:12.197Z,100672.25
2023-04-09T02:04:44.317Z,100665.34
2023-04-09T02:07:19.825Z,100662.88
2023-04-09T02:09:49.657Z,100673.28
2023-04-09T02:12:20.186Z,100661.13
2023-04-09T02:14:50.329Z,100656.88
2023-04-09T02:17:20.661Z,100663.81
2023-04-09T02:19:49.514Z,100660.31
2023-04-09T02:22:18.753Z,100663.78
2023-04-09T02:24:47.890Z,100663.69
2023-04-09T02:27:16.667Z,100661.97
2023-04-09T02:29:45.416Z,100658.53
2023-04-09T02:32:14.546Z,100662.75
2023-04-09T02:34:44.348Z,100667.03
2023-04-09T02:37:13.126Z,100668.75
2023-04-09T02:39:41.684Z,100671.38
2023-04-09T02:42:10.137Z,100665.38
2023-04-09T02:44:38.770Z,100662.75
2023-04-09T02:47:11.887Z,100657.69
2023-04-09T02:49:44.078Z,100657.59
2023-04-09T02:52:14.776Z,100654.22
2023-04-09T02:54:43.355Z,100655.13
2023-04-09T02:57:11.927Z,100656.88
2023-04-09T02:59:40.794Z,100658.66
2023-04-09T03:02:09.425Z,100657.75
2023-04-09T03:04:38.238Z,100667.31
2023-04-09T03:07:06.808Z,100656.03
2023-04-09T03:09:36.631Z,100663.81
2023-04-09T03:12:05.436Z,100666.31
2023-04-09T03:14:36.240Z,100664.66
2023-04-09T03:17:04.940Z,100668.16
2023-04-09T03:19:35.304Z,100664.72
2023-04-09T03:22:04.179Z,100662.16
2023-04-09T03:24:33.415Z,100670.81
2023-04-09T03:27:06.704Z,100669.94
2023-04-09T03:29:35.754Z,100660.59
2023-04-09T03:32:04.167Z,100661.50
2023-04-09T03:34:33.310Z,100668.53
2023-04-09T03:37:02.049Z,100661.66
2023-04-09T03:39:33.514Z,100660.97
2023-04-09T03:42:02.279Z,100666.88
2023-04-09T03:44:38.533Z,100667.81
2023-04-09T03:47:10.891Z,100656.66
2023-04-09T03:49:43.376Z,100662.75
2023-04-09T03:52:27.157Z,100661.00
2023-04-09T03:55:06.029Z,100657.63
2023-04-09T03:57:36.762Z,100654.25
2023-04-09T04:00:10.567Z,100645.69
2023-04-09T04:02:57.988Z,100662.16
2023-04-09T04:05:47.909Z,100665.78
2023-04-09T04:08:18.594Z,100658.94
2023-04-09T04:10:48.269Z,100661.59
2023-04-09T04:13:18.626Z,100649.66
2023-04-09T04:15:54.153Z,100658.41
2023-04-09T04:18:24.954Z,100651.78
2023-04-09T04:20:55.744Z,100646.69
2023-04-09T04:23:24.225Z,100651.09
2023-04-09T04:26:07.021Z,100645.16
2023-04-09T04:28:38.206Z,100647.78
2023-04-09T04:31:15.799Z,100645.25
2023-04-09T04:33:45.145Z,100643.50
2023-04-09T04:36:16.410Z,100642.69
2023-04-09T04:38:53.344Z,100644.56
2023-04-09T04:41:45.256Z,100643.78
2023-04-09T04:44:18.877Z,100649.81
2023-04-09T04:46:50.678Z,100644.72
2023-04-09T04:49:22.246Z,100646.59
2023-04-09T04:51:52.750Z,100641.38
2023-04-09T04:54:21.178Z,100644.09
2023-04-09T04:56:56.328Z,100646.66
2023-04-09T04:59:38.728Z,100649.19
2023-04-09T05:02:12.107Z,100653.69
2023-04-09T05:05:07.505Z,100648.34
2023-04-09T05:07:41.122Z,100651.97
2023-04-09T05:10:13.558Z,100650.19
2023-04-09T05:12:44.105Z,100642.47
2023-04-09T05:15:14.768Z,100649.41
2023-04-09T05:17:45.590Z,100648.47
2023-04-09T05:20:15.805Z,100644.19
2023-04-09T05:22:54.035Z,100644.28
2023-04-09T05:25:29.399Z,100647.72
2023-04-09T05:27:58.436Z,100644.31
2023-04-09T05:30:29.947Z,100645.19
2023-04-09T05:33:03.317Z,100652.16
2023-04-09T05:35:33.054Z,100666.03
2023-04-09T05:38:02.896Z,100655.66
2023-04-09T05:40:32.600Z,100666.94
2023-04-09T05:43:03.002Z,100665.22
2023-04-09T05:45:42.271Z,100670.47
2023-04-09T05:48:15.121Z,100670.47
2023-04-09T05:50:54.022Z,100672.19
2023-04-09T05:53:26.152Z,100669.59
2023-04-09T05:55:57.052Z,100668.81
2023-04-09T05:58:30.204Z,100675.69
2023-04-09T06:00:59.741Z,100665.34
2023-04-09T06:03:29.687Z,100663.66
2023-04-09T06:05:58.654Z,100671.41
2023-04-09T06:08:27.148Z,100672.34
2023-04-09T06:10:55.733Z,100667.09
2023-04-09T06:13:24.536Z,100673.09
2023-04-09T06:15:53.088Z,100680.91
2023-04-09T06:18:22.160Z,100677.47
2023-04-09T06:20:53.548Z,100675.81
2023-04-09T06:23:22.050Z,100679.25
2023-04-09T06:25:53.419Z,100677.53
2023-04-09T06:28:23.362Z,100685.38
2023-04-09T06:30:53.615Z,100687.97
2023-04-09T06:33:22.449Z,100677.56
2023-04-09T06:35:52.368Z,100666.31
2023-04-09T06:38:21.046Z,100678.44
2023-04-09T06:40:49.532Z,100680.16
2023-04-09T06:43:18.328Z,100676.72
2023-04-09T06:45:56.205Z,100681.91
2023-04-09T06:48:24.847Z,100694.03
2023-04-09T06:50:54.903Z,100687.13
2023-04-09T06:53:23.810Z,100686.25
2023-04-09T06:55:52.813Z,100685.34
2023-04-09T06:58:22.336Z,100677.59
2023-04-09T07:00:51.844Z,100678.44
2023-04-09T07:03:20.673Z,100687.09
2023-04-09T07:05:49.869Z,100682.69
2023-04-09T07:08:20.127Z,100683.50
2023-04-09T07:10:48.700Z,100672.97
2023-04-09T07:13:17.460Z,100678.00
2023-04-09T07:15:46.047Z,100680.44
2023-04-09T07:18:17.376Z,100680.31
2023-04-09T07:20:46.222Z,100678.38
2023-04-09T07:23:14.647Z,100677.38
2023-04-09T07:25:46.032Z,100682.38
2023-04-09T07:28:20.892Z,100675.06
2023-04-09T07:30:49.407Z,100676.81
2023-04-09T07:33:17.914Z,100679.31
2023-04-09T07:35:47.070Z,100683.66
2023-04-09T07:38:16.432Z,100680.50
2023-04-09T07:40:47.419Z,100676.09
2023-04-09T07:43:15.949Z,100684.00
2023-04-09T07:45:47.655Z,100689.22
2023-04-09T07:48:16.398Z,100685.50
2023-04-09T07:50:48.347Z,100680.44
2023-04-09T07:53:17.210Z,100673.66
2023-04-09T07:55:47.036Z,100676.63
2023-04-09T07:58:17.076Z,100680.75
2023-04-09T08:00:46.182Z,100677.88
2023-04-09T08:03:15.221Z,100686.16
2023-04-09T08:05:43.983Z,100678.50
2023-04-09T08:08:14.432Z,100682.72
2023-04-09T08:10:43.073Z,100678.38
2023-04-09T08:13:18.046Z,100671.00
2023-04-09T08:15:47.753Z,100667.28
2023-04-09T08:18:19.524Z,100669.66
2023-04-09T08:20:49.822Z,100669.44
2023-04-09T08:23:18.321Z,100666.66
2023-04-09T08:25:46.776Z,100661.41
2023-04-09T08:28:21.900Z,100664.28
2023-04-09T08:30:50.649Z,100659.16
2023-04-09T08:33:23.117Z,100658.53
2023-04-09T08:35:52.098Z,100657.38
2023-04-09T08:38:21.911Z,100658.25
2023-04-09T08:40:50.430Z,100653.84
2023-04-09T08:43:20.817Z,100655.75
2023-04-09T08:45:49.414Z,100657.47
2023-04-09T08:48:18.625Z,100664.97
2023-04-09T08:50:47.797Z,100658.84
2023-04-09T08:53:17.361Z,100657.22
2023-04-09T08:55:50.879Z,100651.22
2023-04-09T08:58:20.688Z,100649.50
2023-04-09T09:00:49.447Z,100651.84
2023-04-09T09:03:18.613Z,100651.75
2023-04-09T09:05:49.759Z,100655.91
2023-04-09T09:08:24.944Z,100645.22
2023-04-09T09:10:53.936Z,100651.44
2023-04-09T09:13:25.964Z,100651.44
2023-04-09T09:15:56.530Z,100647.66
2023-04-09T09:18:40.808Z,100649.22
2023-04-09T09:21:13.711Z,100644.84
2023-04-09T09:23:50.669Z,100635.50
2023-04-09T09:26:21.826Z,100631.50
2023-04-09T09:28:52.254Z,100647.00
2023-04-09T09:31:22.488Z,100640.09
2023-04-09T09:33:51.250Z,100633.75
2023-04-09T09:36:40.118Z,100622.56
2023-04-09T09:39:10.496Z,100625.03
2023-04-09T09:41:39.696Z,100635.31
2023-04-09T09:44:14.068Z,100628.56
2023-04-09T09:46:43.547Z,100614.41
2023-04-09T09:49:14.326Z,100619.56
2023-04-09T09:51:43.339Z,100622.91
2023-04-09T09:54:13.124Z,100623.69
2023-04-09T09:56:43.574Z,100618.19
2023-04-09T09:59:18.421Z,100622.59
2023-04-09T10:01:47.962Z,100630.41
2023-04-09T10:04:19.939Z,100624.59
2023-04-09T10:06:51.049Z,100627.16
2023-04-09T10:09:23.032Z,100622.09
2023-04-09T10:11:51.766Z,100618.94
2023-04-09T10:14:22.684Z,100623.72
2023-04-09T10:16:51.686Z,100620.09
2023-04-09T10:19:20.260Z,100621.81
2023-04-09T10:21:53.934Z,100622.31
2023-04-09T10:24:23.376Z,100617.19
2023-04-09T10:26:56.261Z,100616.47
2023-04-09T10:29:30.324Z,100618.97
2023-04-09T10:32:06.470Z,100610.75
2023-04-09T10:34:42.253Z,100614.59
2023-04-09T10:37:18.287Z,100613.50
2023-04-09T10:39:48.562Z,100606.84
2023-04-09T10:42:20.659Z,100602.72
2023-04-09T10:45:06.306Z,100609.00
2023-04-09T10:47:37.503Z,100611.13
2023-04-09T10:50:19.816Z,100611.38
2023-04-09T10:52:55.233Z,100598.63
2023-04-09T10:55:38.408Z,100608.13
2023-04-09T10:58:09.742Z,100612.63
2023-04-09T11:00:42.589Z,100597.16
2023-04-09T11:03:24.600Z,100609.50
2023-04-09T11:06:00.090Z,100602.50
2023-04-09T11:08:33.156Z,100605.22
2023-04-09T11:11:02.478Z,100609.63
2023-04-09T11:13:32.056Z,100608.72
2023-04-09T11:16:04.361Z,100597.25
2023-04-09T11:18:34.931Z,100600.97
2023-04-09T11:21:04.677Z,100602.13
2023-04-09T11:23:33.791Z,100601.09
2023-04-09T11:26:03.180Z,100603.94
2023-04-09T11:28:32.035Z,100604.03
2023-04-09T11:31:05.973Z,100596.00
2023-04-09T11:33:35.055Z,100604.50
2023-04-09T11:36:06.199Z,100606.16
2023-04-09T11:38:34.949Z,100597.38
2023-04-09T11:41:03.568Z,100597.56
2023-04-09T11:43:32.271Z,100601.41
2023-04-09T11:48:47.616Z,100590.91
2023-04-09T11:51:16.425Z,100596.97
2023-04-09T11:53:44.740Z,100589.13
2023-04-09T11:56:15.780Z,100589.75
2023-04-09T11:58:47.230Z,100582.47
2023-04-09T12:01:17.700Z,100579.22
2023-04-09T12:03:46.533Z,100579.91
2023-04-09T12:06:15.177Z,100571.03
2023-04-09T12:08:43.666Z,100581.69
2023-04-09T12:11:17.842Z,100573.72
2023-04-09T12:13:47.928Z,100577.97
2023-04-09T12:16:21.321Z,100580.66
2023-04-09T12:18:51.191Z,100577.34
2023-04-09T12:21:19.645Z,100574.91
2023-04-09T12:23:48.200Z,100579.38
2023-04-09T12:26:16.807Z,100576.88
2023-04-09T12:28:47.084Z,100575.25
2023-04-09T12:31:15.668Z,100576.09
2023-04-09T12:33:50.335Z,100582.06
2023-04-09T12:36:18.973Z,100573.44
2023-04-09T12:38:49.102Z,100576.09
2023-04-09T12:41:17.948Z,100574.28
2023-04-09T12:43:47.335Z,100579.34
2023-04-09T12:46:16.023Z,100572.25
2023-04-09T12:48:46.158Z,100573.16
2023-04-09T12:51:20.928Z,100572.13
2023-04-09T12:53:49.470Z,100568.59
2023-04-09T12:56:17.848Z,100564.13
2023-04-09T12:58:46.576Z,100573.03
2023-04-09T13:01:15.249Z,100567.72
2023-04-09T13:03:47.437Z,100568.91
2023-04-09T13:06:16.240Z,100571.63
2023-04-09T13:08:44.803Z,100567.78
2023-04-09T13:11:16.411Z,100567.84
2023-04-09T13:13:44.877Z,100561.59
2023-04-09T13:16:16.444Z,100573.13
2023-04-09T13:18:44.933Z,100571.34
2023-04-09T13:21:18.911Z,100567.53
2023-04-09T13:23:47.727Z,100565.09
2023-04-09T13:26:19.398Z,100564.19
2023-04-09T13:28:48.129Z,100576.63
2023-04-09T13:31:16.810Z,100563.72
2023-04-09T13:33:47.303Z,100568.94
2023-04-09T13:36:20.462Z,100575.13
2023-04-09T13:38:49.405Z,100577.00
2023-04-09T13:41:19.154Z,100572.56
2023-04-09T13:43:47.685Z,100585.84
2023-04-09T13:46:16.092Z,100574.59
2023-04-09T13:48:45.017Z,100577.44
2023-04-09T13:51:13.592Z,100571.44
2023-04-09T13:53:45.970Z,100568.88
2023-04-09T13:56:17.609Z,100574.97
2023-04-09T13:58:46.909Z,100566.28
2023-04-09T14:01:16.091Z,100563.63
2023-04-09T14:03:45.124Z,100558.41
2023-04-09T14:06:13.695Z,100573.19
2023-04-09T14:08:44.375Z,100565.16
2023-04-09T14:11:15.964Z,100564.28
2023-04-09T14:13:48.663Z,100559.97
2023-04-09T14:16:17.381Z,100556.44
2023-04-09T14:18:45.920Z,100557.47
2023-04-09T14:21:18.446Z,100558.19
2023-04-09T14:23:47.095Z,100548.66
2023-04-09T14:26:22.124Z,100555.66
2023-04-09T14:28:53.206Z,100547.06
2023-04-09T14:31:22.117Z,100545.25
2023-04-09T14:33:50.858Z,100548.75
2023-04-09T14:36:21.310Z,100542.56
2023-04-09T14:38:51.358Z,100536.50
2023-04-09T14:41:21.974Z,100546.00
2023-04-09T14:43:50.902Z,100535.63
2023-04-09T14:46:20.422Z,100545.09
2023-04-09T14:48:49.186Z,100542.50
2023-04-09T14:51:17.904Z,100546.72
2023-04-09T14:53:46.874Z,100537.19
2023-04-09T14:56:17.382Z,100537.25
2023-04-09T14:58:47.832Z,100540.72
2023-04-09T15:01:16.256Z,100539.94
2023-04-09T15:03:45.200Z,100546.09
2023-04-09T15:06:13.852Z,100536.69
2023-04-09T15:08:42.488Z,100535.66
2023-04-09T15:11:16.464Z,100540.13
2023-04-09T15:13:44.944Z,100529.69
2023-04-09T15:16:24.492Z,100534.06
2023-04-09T15:18:55.857Z,100538.47
2023-04-09T15:21:25.036Z,100528.03
2023-04-09T15:23:54.039Z,100532.41
2023-04-09T15:26:23.038Z,100528.13
2023-04-09T15:28:54.779Z,100525.63
2023-04-09T15:31:24.983Z,100529.84
2023-04-09T15:33:56.719Z,100533.31
2023-04-09T15:36:26.329Z,100526.50
2023-04-09T15:38:56.144Z,100529.97
2023-04-09T15:41:27.064Z,100524.78
2023-04-09T15:43:56.792Z,100526.53
2023-04-09T15:46:27.014Z,100527.44
2023-04-09T15:48:55.692Z,100519.66
2023-04-09T15:51:24.181Z,100524.06
2023-04-09T15:53:53.183Z,100522.28
2023-04-09T15:56:23.705Z,100524.97
2023-04-09T15:58:52.604Z,100517.25
2023-04-09T16:01:21.350Z,100513.00
2023-04-09T16:03:52.454Z,100510.44
2023-04-09T16:06:21.341Z,100513.94
2023-04-09T16:08:49.788Z,100518.31
2023-04-09T16:11:18.596Z,100516.72
2023-04-09T16:13:49.890Z,100522.84
2023-04-09T16:16:18.486Z,100519.38
2023-04-09T16:18:48.822Z,100526.41
2023-04-09T16:21:21.612Z,100527.25
2023-04-09T16:23:52.182Z,100525.56
2023-04-09T16:26:20.835Z,100521.28
2023-04-09T16:28:50.052Z,100522.16
2023-04-09T16:31:18.767Z,100533.41
2023-04-09T16:33:47.636Z,100524.78
2023-04-09T16:36:16.366Z,100529.06
2023-04-09T16:38:46.279Z,100524.78
2023-04-09T16:41:14.981Z,100531.75
2023-04-09T16:43:46.049Z,100524.84
2023-04-09T16:46:14.749Z,100531.84
2023-04-09T16:48:43.241Z,100530.13
2023-04-09T16:51:11.793Z,100531.84
2023-04-09T16:53:40.369Z,100525.81
2023-04-09T16:56:10.925Z,100543.13
2023-04-09T16:58:39.548Z,100530.22
2023-04-09T17:01:08.151Z,100534.50
2023-04-09T17:03:36.649Z,100546.66
2023-04-09T17:06:06.169Z,100536.28
2023-04-09T17:08:35.575Z,100544.16
2023-04-09T17:11:04.275Z,100547.59
2023-04-09T17:13:35.924Z,100541.59
2023-04-09T17:16:04.974Z,100545.91
2023-04-09T17:18:36.661Z,100547.63
2023-04-09T17:21:05.996Z,100551.97
2023-04-09T17:23:34.563Z,100562.38
2023-04-09T17:26:03.451Z,100553.72
2023-04-09T17:28:35.840Z,100558.03
2023-04-09T17:31:04.682Z,100561.50
2023-04-09T17:33:33.185Z,100554.59
2023-04-09T17:36:02.037Z,100561.50
2023-04-09T17:38:31.887Z,100553.72
2023-04-09T17:41:00.434Z,100550.25
2023-04-09T17:43:29.234Z,100551.97
2023-04-09T17:46:01.794Z,100555.44
2023-04-09T17:48:32.100Z,100558.91
2023-04-09T17:51:00.716Z,100563.22
2023-04-09T17:53:29.267Z,100560.59
2023-04-09T17:55:58.186Z,100565.75
2023-04-09T17:58:27.139Z,100562.25
2023-04-09T18:00:55.840Z,100559.69
2023-04-09T18:03:26.101Z,100563.09
2023-04-09T18:05:54.924Z,100566.47
2023-04-09T18:08:23.566Z,100565.63
2023-04-09T18:11:11.305Z,100564.78
2023-04-09T18:13:40.419Z,100561.34
2023-04-09T18:16:10.699Z,100559.56
2023-04-09T18:18:41.406Z,100565.69
2023-04-09T18:21:10.194Z,100560.56
2023-04-09T18:23:40.440Z,100564.91
2023-04-09T18:26:09.096Z,100558.84
2023-04-09T18:28:37.582Z,100559.69
2023-04-09T18:31:06.786Z,100550.16
2023-04-09T18:33:35.749Z,100555.34
2023-04-09T18:36:06.495Z,100549.31
2023-04-09T18:38:35.182Z,100556.28
2023-04-09T18:41:08.285Z,100561.38
2023-04-09T18:43:37.165Z,100551.84
2023-04-09T18:46:06.140Z,100554.44
2023-04-09T18:48:34.630Z,100550.97
2023-04-09T18:51:03.485Z,100556.97
2023-04-09T18:53:33.726Z,100560.34
2023-04-09T18:56:02.326Z,100555.09
2023-04-09T18:58:31.600Z,100557.66
2023-04-09T19:01:01.165Z,100560.22
2023-04-09T19:03:30.918Z,100557.47
2023-04-09T19:06:00.382Z,100561.72
2023-04-09T19:08:32.408Z,100560.78
2023-04-09T19:11:05.736Z,100547.72
2023-04-09T19:13:34.411Z,100555.47
2023-04-09T19:16:02.898Z,100557.16
2023-04-09T19:18:33.792Z,100552.75
2023-04-09T19:21:06.585Z,100556.19
2023-04-09T19:23:35.660Z,100555.28
2023-04-09T19:26:08.443Z,100553.53
2023-04-09T19:28:37.869Z,100556.06
2023-04-09T19:31:07.749Z,100560.34
2023-04-09T19:33:36.364Z,100561.16
2023-04-09T19:36:06.718Z,100560.19
2023-04-09T19:38:38.086Z,100564.41
2023-04-09T19:41:13.952Z,100562.59
2023-04-09T19:43:45.295Z,100568.53
2023-04-09T19:46:16.718Z,100561.53
2023-04-09T19:48:49.397Z,100564.88
2023-04-09T19:51:22.942Z,100560.47
2023-04-09T19:53:56.634Z,100568.13
2023-04-09T19:56:29.801Z,100568.06
2023-04-09T19:59:01.125Z,100570.66
2023-04-09T20:01:33.466Z,100571.38
2023-04-09T20:04:04.911Z,100568.81
2023-04-09T20:06:37.274Z,100566.31
2023-04-09T20:09:13.050Z,100557.81
2023-04-09T20:11:44.021Z,100565.56
2023-04-09T20:14:12.710Z,100566.72
2023-04-09T20:16:41.177Z,100564.88
2023-04-09T20:19:10.071Z,100562.25
2023-04-09T20:21:38.499Z,100556.22
2023-04-09T20:24:08.279Z,100560.75
2023-04-09T20:26:36.816Z,100560.69
2023-04-09T20:29:07.525Z,100553.63
2023-04-09T20:31:36.662Z,100563.97
2023-04-09T20:34:05.582Z,100564.88
2023-04-09T20:36:37.593Z,100564.06
2023-04-09T20:39:06.408Z,100560.63
2023-04-09T20:41:34.844Z,100561.66
2023-04-09T20:44:03.397Z,100557.41
2023-04-09T20:46:33.312Z,100564.34
2023-04-09T20:49:04.001Z,100563.50
2023-04-09T20:51:32.631Z,100563.59
2023-04-09T20:54:02.277Z,100568.66
2023-04-09T20:56:30.996Z,100569.56
2023-04-09T20:58:59.678Z,100572.13
2023-04-09T21:01:28.820Z,100569.47
2023-04-09T21:03:58.849Z,100568.59
2023-04-09T21:06:27.442Z,100575.38
2023-04-09T21:08:58.652Z,100567.56
2023-04-09T21:11:28.299Z,100570.97
2023-04-09T21:13:58.079Z,100574.66
2023-04-09T21:16:28.671Z,100561.81
2023-04-09T21:18:58.560Z,100561.06
2023-04-09T21:21:28.494Z,100567.19
2023-04-09T21:23:58.571Z,100564.00
2023-04-09T21:26:28.120Z,100565.75
2023-04-09T21:29:02.810Z,100567.38
2023-04-09T21:31:32.347Z,100564.84
2023-04-09T21:34:02.155Z,100567.38
2023-04-09T21:36:35.569Z,100568.25
2023-04-09T21:39:07.109Z,100568.25
2023-04-09T21:41:35.811Z,100569.97
2023-04-09T21:44:08.584Z,100560.56
2023-04-09T21:46:37.721Z,100558.78
2023-04-09T21:49:08.202Z,100559.63
2023-04-09T21:51:37.566Z,100570.91
2023-04-09T21:54:06.932Z,100569.22
2023-04-09T21:56:36.010Z,100575.31
2023-04-09T21:59:05.340Z,100573.56
2023-04-09T22:01:35.450Z,100557.19
2023-04-09T22:04:04.421Z,100574.41
2023-04-09T22:06:36.389Z,100564.88
2023-04-09T22:09:08.050Z,100568.22
2023-04-09T22:11:41.379Z,100572.59
2023-04-09T22:14:09.744Z,100571.66
2023-04-09T22:16:40.818Z,100568.16
2023-04-09T22:19:09.338Z,100563.09
2023-04-09T22:21:39.641Z,100569.13
2023-04-09T22:24:11.851Z,100572.53
2023-04-09T22:26:42.757Z,100566.53
2023-04-09T22:29:11.145Z,100576.91
2023-04-09T22:31:40.084Z,100569.16
2023-04-09T22:34:20.930Z,100573.50
2023-04-09T22:36:52.121Z,100574.31
2023-04-09T22:39:21.617Z,100568.22
2023-04-09T22:41:50.290Z,100569.19
2023-04-09T22:44:18.886Z,100568.28
2023-04-09T22:46:47.587Z,100557.16
2023-04-09T22:49:15.994Z,100562.31
2023-04-09T22:51:44.686Z,100566.59
2023-04-09T22:54:14.728Z,100567.47
2023-04-09T22:56:43.217Z,100569.22
2023-04-09T22:59:11.797Z,100562.38
2023-04-09T23:01:40.832Z,100563.19
2023-04-09T23:04:09.464Z,100565.91
2023-04-09T23:06:38.317Z,100564.06
2023-04-09T23:09:06.762Z,100557.97
2023-04-09T23:11:37.780Z,100567.53
2023-04-09T23:14:06.525Z,100570.97
2023-04-09T23:16:35.187Z,100568.34
2023-04-09T23:19:03.886Z,100564.06
2023-04-09T23:21:32.517Z,100564.00
2023-04-09T23:24:02.017Z,100571.75
2023-04-09T23:26:30.472Z,100569.97
2023-04-09T23:29:01.064Z,100566.53
2023-04-09T23:31:29.721Z,100572.53
2023-04-09T23:33:58.268Z,100576.88
2023-04-09T23:36:27.061Z,100567.31
2023-04-09T23:38:55.413Z,100577.66
2023-04-09T23:41:26.187Z,100578.44
2023-04-09T23:43:55.345Z,100572.44
2023-04-09T23:46:25.690Z,100569.94
2023-04-09T23:48:54.174Z,100569.91
2023-04-09T23:51:22.816Z,100566.47
2023-04-09T23:53:51.680Z,100561.28
2023-04-09T23:56:20.375Z,100563.81
2023-04-09T23:58:48.863Z,100567.25
